GIA1113 WAAA-WIMM
Flight info
| Callsign | GIA1113 |
|---|---|
| Flight time | N/A |
| Altitude | 34000 |
| Route | GURN1A GURNI W35 BDM LAMUD EGAVO JATAM A585 PKU W12 MEDIA |
| Aircraft | B77W/H-SDE1E2E3FGHIJ2J3J4J5M1RWXY/LB1D1 |
Departure
| Time | N/A |
|---|---|
| Airport | Sultan Hasanuddin International Airport (WAAA) |
Arrival
| Time | 2026-05-01 10:05 |
|---|---|
| Airport | Kualanamu International Airport (WIMM) |
| Time | Latitude | Longitude | Altitude | Speed | Heading |
|---|---|---|---|---|---|
| 2026-05-01 07:23 | -4.53566 | 118.08966 | 28842 ft | 513 kts | 304° |
| 2026-05-01 07:23 | -4.49575 | 118.02943 | 29172 ft | 518 kts | 303° |
| 2026-05-01 07:24 | -4.47529 | 117.99854 | 29455 ft | 518 kts | 304° |
| 2026-05-01 07:24 | -4.45541 | 117.96854 | 29861 ft | 515 kts | 304° |
| 2026-05-01 07:24 | -4.43560 | 117.93865 | 30164 ft | 514 kts | 304° |
| 2026-05-01 07:24 | -4.41556 | 117.90845 | 30496 ft | 513 kts | 304° |
| 2026-05-01 07:25 | -4.39558 | 117.87834 | 30832 ft | 512 kts | 304° |
| 2026-05-01 07:25 | -4.37582 | 117.84855 | 31082 ft | 512 kts | 303° |
| 2026-05-01 07:25 | -4.35635 | 117.81918 | 31426 ft | 510 kts | 303° |
| 2026-05-01 07:25 | -4.33545 | 117.78766 | 31780 ft | 508 kts | 303° |
| 2026-05-01 07:26 | -4.31594 | 117.75825 | 32154 ft | 505 kts | 303° |
| 2026-05-01 07:26 | -4.29672 | 117.72925 | 32460 ft | 504 kts | 303° |
| 2026-05-01 07:26 | -4.27681 | 117.69923 | 32664 ft | 505 kts | 304° |
| 2026-05-01 07:26 | -4.25731 | 117.66985 | 32916 ft | 505 kts | 304° |
| 2026-05-01 07:27 | -4.23783 | 117.64054 | 33235 ft | 503 kts | 303° |
| 2026-05-01 07:27 | -4.22507 | 117.62132 | 33480 ft | 502 kts | 303° |
| 2026-05-01 07:27 | -4.20132 | 117.58553 | 33710 ft | 504 kts | 303° |
| 2026-05-01 07:28 | -4.16229 | 117.52672 | 33824 ft | 508 kts | 303° |
| 2026-05-01 07:28 | -4.12282 | 117.46719 | 33825 ft | 512 kts | 303° |
| 2026-05-01 07:29 | -4.08366 | 117.40826 | 33824 ft | 513 kts | 303° |
| 2026-05-01 07:29 | -4.04272 | 117.34663 | 33823 ft | 510 kts | 303° |
| 2026-05-01 07:30 | -4.00309 | 117.28662 | 33817 ft | 511 kts | 301° |
| 2026-05-01 07:30 | -3.97479 | 117.22762 | 33823 ft | 513 kts | 288° |
| 2026-05-01 07:31 | -3.95666 | 117.15562 | 33817 ft | 512 kts | 281° |
| 2026-05-01 07:32 | -3.92299 | 116.98715 | 33818 ft | 509 kts | 282° |
| 2026-05-01 07:33 | -3.90069 | 116.88238 | 33817 ft | 512 kts | 282° |
| 2026-05-01 07:33 | -3.87951 | 116.78333 | 33817 ft | 513 kts | 282° |
| 2026-05-01 07:34 | -3.85561 | 116.67188 | 33817 ft | 512 kts | 282° |
| 2026-05-01 07:35 | -3.84067 | 116.60229 | 33817 ft | 511 kts | 282° |
| 2026-05-01 07:35 | -3.82558 | 116.53203 | 33816 ft | 511 kts | 282° |
| 2026-05-01 07:36 | -3.81061 | 116.46236 | 33817 ft | 511 kts | 282° |
| 2026-05-01 07:36 | -3.79555 | 116.39228 | 33817 ft | 511 kts | 282° |
| 2026-05-01 07:37 | -3.77316 | 116.28822 | 33817 ft | 511 kts | 282° |
| 2026-05-01 07:37 | -3.75799 | 116.21769 | 33816 ft | 511 kts | 282° |
| 2026-05-01 07:38 | -3.74291 | 116.14765 | 33817 ft | 511 kts | 282° |
| 2026-05-01 07:39 | -3.72031 | 116.04272 | 33817 ft | 512 kts | 282° |
| 2026-05-01 07:39 | -3.69786 | 115.93854 | 33817 ft | 512 kts | 282° |
| 2026-05-01 07:40 | -3.68273 | 115.86837 | 33817 ft | 512 kts | 282° |
| 2026-05-01 07:40 | -3.66750 | 115.79778 | 33816 ft | 512 kts | 282° |
| 2026-05-01 07:41 | -3.65480 | 115.73892 | 33817 ft | 512 kts | 282° |
| 2026-05-01 07:42 | -3.63211 | 115.63382 | 33817 ft | 512 kts | 282° |
| 2026-05-01 07:42 | -3.61693 | 115.56353 | 33816 ft | 512 kts | 282° |
| 2026-05-01 07:43 | -3.60206 | 115.49471 | 33817 ft | 513 kts | 282° |
| 2026-05-01 07:43 | -3.57912 | 115.38856 | 33817 ft | 513 kts | 282° |
| 2026-05-01 07:44 | -3.54852 | 115.24713 | 33816 ft | 513 kts | 282° |
| 2026-05-01 07:45 | -3.54608 | 115.23583 | 33817 ft | 513 kts | 282° |
| 2026-05-01 07:46 | -3.50253 | 115.03462 | 33816 ft | 513 kts | 282° |
| 2026-05-01 07:47 | -3.47971 | 114.92924 | 33816 ft | 513 kts | 282° |
| 2026-05-01 07:47 | -3.46403 | 114.85698 | 33817 ft | 513 kts | 282° |
| 2026-05-01 07:48 | -3.44367 | 114.76317 | 33817 ft | 512 kts | 282° |
| 2026-05-01 07:48 | -3.42875 | 114.69091 | 33817 ft | 512 kts | 280° |
| 2026-05-01 07:49 | -3.41148 | 114.57931 | 33817 ft | 512 kts | 279° |
| 2026-05-01 07:50 | -3.40020 | 114.50763 | 33816 ft | 510 kts | 279° |
| 2026-05-01 07:50 | -3.38437 | 114.40967 | 33817 ft | 513 kts | 279° |
| 2026-05-01 07:51 | -3.37286 | 114.33860 | 33817 ft | 511 kts | 279° |
| 2026-05-01 07:52 | -3.35487 | 114.22798 | 33817 ft | 509 kts | 279° |
| 2026-05-01 07:52 | -3.34526 | 114.16894 | 33817 ft | 510 kts | 279° |
| 2026-05-01 07:53 | -3.32805 | 114.06339 | 33817 ft | 513 kts | 279° |
| 2026-05-01 07:53 | -3.31648 | 113.99249 | 33817 ft | 512 kts | 279° |
| 2026-05-01 07:55 | -3.28833 | 113.82005 | 33817 ft | 514 kts | 279° |
| 2026-05-01 07:56 | -3.25849 | 113.63751 | 33817 ft | 516 kts | 279° |
| 2026-05-01 07:57 | -3.24112 | 113.53131 | 33816 ft | 516 kts | 279° |
| 2026-05-01 07:58 | -3.21795 | 113.38981 | 33817 ft | 516 kts | 279° |
| 2026-05-01 07:59 | -3.19442 | 113.24620 | 33817 ft | 516 kts | 279° |
| 2026-05-01 08:00 | -3.15937 | 113.03256 | 33816 ft | 516 kts | 278° |
| 2026-05-01 08:01 | -3.13607 | 112.89067 | 33816 ft | 514 kts | 278° |
| 2026-05-01 08:02 | -3.11849 | 112.78375 | 33817 ft | 515 kts | 278° |
| 2026-05-01 08:03 | -3.10317 | 112.69046 | 33816 ft | 518 kts | 279° |
| 2026-05-01 08:03 | -3.08386 | 112.57306 | 33817 ft | 522 kts | 279° |
| 2026-05-01 08:04 | -3.06102 | 112.43441 | 33818 ft | 521 kts | 279° |
| 2026-05-01 08:05 | -3.04278 | 112.32382 | 33817 ft | 524 kts | 279° |
| 2026-05-01 08:06 | -3.02193 | 112.21371 | 33817 ft | 521 kts | 283° |
| 2026-05-01 08:07 | -2.99409 | 112.08207 | 33793 ft | 519 kts | 283° |
| 2026-05-01 08:08 | -2.97211 | 111.97535 | 33788 ft | 522 kts | 282° |
| 2026-05-01 08:09 | -2.94291 | 111.83244 | 33787 ft | 521 kts | 282° |
| 2026-05-01 08:09 | -2.92826 | 111.76087 | 33787 ft | 521 kts | 282° |
| 2026-05-01 08:10 | -2.89821 | 111.61407 | 33787 ft | 521 kts | 282° |
| 2026-05-01 08:11 | -2.86907 | 111.47193 | 33787 ft | 523 kts | 282° |
| 2026-05-01 08:12 | -2.84695 | 111.36402 | 33787 ft | 520 kts | 282° |
| 2026-05-01 08:13 | -2.82533 | 111.25867 | 33788 ft | 522 kts | 282° |
| 2026-05-01 08:13 | -2.80281 | 111.14904 | 33788 ft | 523 kts | 282° |
| 2026-05-01 08:14 | -2.79101 | 111.09149 | 33787 ft | 523 kts | 282° |
| 2026-05-01 08:14 | -2.77574 | 111.01706 | 33787 ft | 520 kts | 282° |
| 2026-05-01 08:15 | -2.75389 | 110.91074 | 33787 ft | 520 kts | 282° |
| 2026-05-01 08:16 | -2.73923 | 110.83943 | 33787 ft | 521 kts | 282° |
| 2026-05-01 08:16 | -2.72451 | 110.76781 | 33787 ft | 522 kts | 282° |
| 2026-05-01 08:17 | -2.70975 | 110.69612 | 33787 ft | 522 kts | 282° |
| 2026-05-01 08:17 | -2.69498 | 110.62429 | 33787 ft | 523 kts | 282° |
| 2026-05-01 08:18 | -2.68012 | 110.55198 | 33787 ft | 520 kts | 282° |
| 2026-05-01 08:19 | -2.65049 | 110.40817 | 33787 ft | 520 kts | 282° |
| 2026-05-01 08:19 | -2.63740 | 110.34461 | 33788 ft | 520 kts | 282° |
| 2026-05-01 08:20 | -2.62279 | 110.27372 | 33787 ft | 520 kts | 282° |
| 2026-05-01 08:20 | -2.60817 | 110.20276 | 33787 ft | 520 kts | 282° |
| 2026-05-01 08:21 | -2.59347 | 110.13145 | 33787 ft | 520 kts | 282° |
| 2026-05-01 08:21 | -2.57887 | 110.06064 | 33787 ft | 519 kts | 282° |
| 2026-05-01 08:22 | -2.56427 | 109.98987 | 33787 ft | 519 kts | 282° |
| 2026-05-01 08:22 | -2.54937 | 109.91770 | 33787 ft | 520 kts | 282° |
| 2026-05-01 08:23 | -2.53476 | 109.84687 | 33787 ft | 520 kts | 282° |
| 2026-05-01 08:23 | -2.51981 | 109.77447 | 33787 ft | 519 kts | 282° |
| 2026-05-01 08:24 | -2.50544 | 109.70489 | 33787 ft | 519 kts | 282° |
| 2026-05-01 08:24 | -2.49076 | 109.63383 | 33787 ft | 519 kts | 282° |
| 2026-05-01 08:25 | -2.47605 | 109.56265 | 33787 ft | 519 kts | 282° |
| 2026-05-01 08:25 | -2.46139 | 109.49173 | 33969 ft | 521 kts | 282° |
| 2026-05-01 08:25 | -2.45408 | 109.45636 | 34383 ft | 516 kts | 282° |
| 2026-05-01 08:26 | -2.44684 | 109.42130 | 34782 ft | 512 kts | 282° |
| 2026-05-01 08:26 | -2.43962 | 109.38643 | 34996 ft | 513 kts | 282° |
| 2026-05-01 08:26 | -2.43220 | 109.35057 | 35204 ft | 513 kts | 282° |
| 2026-05-01 08:26 | -2.42721 | 109.32644 | 35393 ft | 512 kts | 282° |
| 2026-05-01 08:27 | -2.41756 | 109.27977 | 35719 ft | 511 kts | 282° |
| 2026-05-01 08:27 | -2.40314 | 109.21012 | 35791 ft | 512 kts | 282° |
| 2026-05-01 08:28 | -2.38870 | 109.14035 | 35787 ft | 511 kts | 282° |
| 2026-05-01 08:28 | -2.37429 | 109.07076 | 35788 ft | 510 kts | 282° |
| 2026-05-01 08:29 | -2.36175 | 109.01017 | 35787 ft | 510 kts | 282° |
| 2026-05-01 08:29 | -2.34540 | 108.93126 | 35787 ft | 511 kts | 282° |
| 2026-05-01 08:30 | -2.33136 | 108.86350 | 35787 ft | 511 kts | 282° |
| 2026-05-01 08:30 | -2.31675 | 108.79299 | 35788 ft | 511 kts | 282° |
| 2026-05-01 08:31 | -2.30369 | 108.73000 | 35787 ft | 511 kts | 282° |
| 2026-05-01 08:31 | -2.28926 | 108.66038 | 35787 ft | 511 kts | 282° |
| 2026-05-01 08:32 | -2.27491 | 108.59122 | 35788 ft | 511 kts | 282° |
| 2026-05-01 08:32 | -2.26009 | 108.51978 | 35787 ft | 512 kts | 282° |
| 2026-05-01 08:33 | -2.24556 | 108.44974 | 35787 ft | 515 kts | 282° |
| 2026-05-01 08:33 | -2.23099 | 108.37949 | 35787 ft | 516 kts | 282° |
| 2026-05-01 08:34 | -2.21624 | 108.30839 | 35787 ft | 515 kts | 282° |
| 2026-05-01 08:34 | -2.20156 | 108.23777 | 35787 ft | 516 kts | 282° |
| 2026-05-01 08:35 | -2.18744 | 108.16976 | 35788 ft | 516 kts | 282° |
| 2026-05-01 08:35 | -2.17156 | 108.09638 | 35789 ft | 514 kts | 285° |
| 2026-05-01 08:36 | -2.14901 | 108.02813 | 35786 ft | 514 kts | 291° |
| 2026-05-01 08:36 | -2.12190 | 107.96111 | 35787 ft | 517 kts | 293° |
| 2026-05-01 08:37 | -2.09879 | 107.90433 | 35787 ft | 517 kts | 292° |
| 2026-05-01 08:37 | -2.07196 | 107.83651 | 35787 ft | 517 kts | 291° |
| 2026-05-01 08:38 | -2.04382 | 107.76456 | 35787 ft | 517 kts | 291° |
| 2026-05-01 08:38 | -2.01775 | 107.69757 | 35787 ft | 517 kts | 291° |
| 2026-05-01 08:39 | -1.99146 | 107.63001 | 35787 ft | 517 kts | 291° |
| 2026-05-01 08:39 | -1.96519 | 107.56252 | 35787 ft | 517 kts | 291° |
| 2026-05-01 08:40 | -1.92596 | 107.46170 | 35787 ft | 518 kts | 291° |
| 2026-05-01 08:40 | -1.90005 | 107.39517 | 35787 ft | 518 kts | 290° |
| 2026-05-01 08:41 | -1.87635 | 107.33426 | 35788 ft | 518 kts | 291° |
| 2026-05-01 08:41 | -1.85013 | 107.26682 | 35787 ft | 515 kts | 292° |
| 2026-05-01 08:42 | -1.82381 | 107.19944 | 35788 ft | 518 kts | 291° |
| 2026-05-01 08:42 | -1.79756 | 107.13202 | 35787 ft | 520 kts | 290° |
| 2026-05-01 08:43 | -1.77138 | 107.06468 | 35787 ft | 520 kts | 291° |
| 2026-05-01 08:43 | -1.74368 | 106.99355 | 35788 ft | 520 kts | 292° |
| 2026-05-01 08:44 | -1.71749 | 106.92639 | 35786 ft | 516 kts | 292° |
| 2026-05-01 08:44 | -1.69105 | 106.85857 | 35787 ft | 514 kts | 292° |
| 2026-05-01 08:45 | -1.66509 | 106.79195 | 35788 ft | 518 kts | 292° |
| 2026-05-01 08:45 | -1.63897 | 106.72495 | 35787 ft | 517 kts | 292° |
| 2026-05-01 08:46 | -1.61273 | 106.65765 | 35787 ft | 516 kts | 293° |
| 2026-05-01 08:46 | -1.58648 | 106.59031 | 35787 ft | 517 kts | 293° |
| 2026-05-01 08:47 | -1.56458 | 106.53414 | 35787 ft | 517 kts | 293° |
| 2026-05-01 08:47 | -1.53800 | 106.46598 | 35787 ft | 519 kts | 292° |
| 2026-05-01 08:48 | -1.50986 | 106.39380 | 35787 ft | 520 kts | 292° |
| 2026-05-01 08:48 | -1.48356 | 106.32635 | 35788 ft | 519 kts | 292° |
| 2026-05-01 08:49 | -1.45698 | 106.25822 | 35787 ft | 518 kts | 293° |
| 2026-05-01 08:49 | -1.43066 | 106.19075 | 35787 ft | 517 kts | 293° |
| 2026-05-01 08:50 | -1.40537 | 106.12594 | 35788 ft | 519 kts | 292° |
| 2026-05-01 08:50 | -1.37801 | 106.05580 | 35787 ft | 520 kts | 292° |
| 2026-05-01 08:51 | -1.35187 | 105.98881 | 35787 ft | 520 kts | 292° |
| 2026-05-01 08:51 | -1.32561 | 105.92152 | 35787 ft | 520 kts | 292° |
| 2026-05-01 08:52 | -1.30358 | 105.86507 | 35787 ft | 519 kts | 292° |
| 2026-05-01 08:52 | -1.27664 | 105.79603 | 35787 ft | 519 kts | 292° |
| 2026-05-01 08:53 | -1.25035 | 105.72869 | 35788 ft | 520 kts | 292° |
| 2026-05-01 08:53 | -1.22335 | 105.65953 | 35788 ft | 520 kts | 292° |
| 2026-05-01 08:54 | -1.19723 | 105.59262 | 35787 ft | 519 kts | 292° |
| 2026-05-01 08:54 | -1.16976 | 105.52225 | 35787 ft | 519 kts | 292° |
| 2026-05-01 08:55 | -1.14349 | 105.45497 | 35787 ft | 519 kts | 292° |
| 2026-05-01 08:55 | -1.11685 | 105.38675 | 35788 ft | 519 kts | 292° |
| 2026-05-01 08:56 | -1.09026 | 105.31867 | 35787 ft | 519 kts | 292° |
| 2026-05-01 08:56 | -1.06379 | 105.25089 | 35787 ft | 519 kts | 292° |
| 2026-05-01 08:57 | -1.03714 | 105.18265 | 35793 ft | 518 kts | 292° |
| 2026-05-01 08:57 | -1.01164 | 105.11739 | 35792 ft | 517 kts | 292° |
| 2026-05-01 08:58 | -0.98776 | 105.05625 | 35795 ft | 517 kts | 292° |
| 2026-05-01 08:58 | -0.96140 | 104.98878 | 35804 ft | 518 kts | 292° |
| 2026-05-01 08:59 | -0.93503 | 104.92127 | 35825 ft | 518 kts | 293° |
| 2026-05-01 08:59 | -0.90859 | 104.85360 | 35827 ft | 518 kts | 293° |
| 2026-05-01 09:00 | -0.88264 | 104.78719 | 35826 ft | 519 kts | 293° |
| 2026-05-01 09:00 | -0.85615 | 104.71940 | 35841 ft | 517 kts | 293° |
| 2026-05-01 09:01 | -0.82977 | 104.65188 | 35842 ft | 517 kts | 293° |
| 2026-05-01 09:01 | -0.80362 | 104.58499 | 35840 ft | 517 kts | 293° |
| 2026-05-01 09:02 | -0.77639 | 104.51530 | 35840 ft | 517 kts | 293° |
| 2026-05-01 09:02 | -0.75268 | 104.45463 | 35841 ft | 517 kts | 293° |
| 2026-05-01 09:03 | -0.72582 | 104.38593 | 35840 ft | 517 kts | 293° |
| 2026-05-01 09:03 | -0.69959 | 104.31882 | 35838 ft | 517 kts | 293° |
| 2026-05-01 09:04 | -0.67234 | 104.24911 | 35835 ft | 518 kts | 293° |
| 2026-05-01 09:04 | -0.64828 | 104.18757 | 35835 ft | 518 kts | 293° |
| 2026-05-01 09:05 | -0.62098 | 104.11774 | 35833 ft | 518 kts | 293° |
| 2026-05-01 09:05 | -0.59519 | 104.05176 | 35833 ft | 518 kts | 293° |
| 2026-05-01 09:06 | -0.56687 | 103.97932 | 35826 ft | 518 kts | 293° |
| 2026-05-01 09:06 | -0.54102 | 103.91320 | 35824 ft | 518 kts | 293° |
| 2026-05-01 09:07 | -0.51444 | 103.84523 | 35810 ft | 518 kts | 293° |
| 2026-05-01 09:07 | -0.48800 | 103.77762 | 35796 ft | 519 kts | 292° |
| 2026-05-01 09:08 | -0.46609 | 103.72159 | 35796 ft | 519 kts | 292° |
| 2026-05-01 09:08 | -0.43951 | 103.65362 | 35795 ft | 519 kts | 292° |
| 2026-05-01 09:09 | -0.41344 | 103.58694 | 35797 ft | 518 kts | 292° |
| 2026-05-01 09:09 | -0.38610 | 103.51702 | 35790 ft | 519 kts | 292° |
| 2026-05-01 09:10 | -0.35984 | 103.44988 | 35789 ft | 519 kts | 292° |
| 2026-05-01 09:10 | -0.33217 | 103.37913 | 35786 ft | 519 kts | 292° |
| 2026-05-01 09:11 | -0.30530 | 103.31043 | 35778 ft | 519 kts | 292° |
| 2026-05-01 09:11 | -0.27885 | 103.24278 | 35778 ft | 519 kts | 292° |
| 2026-05-01 09:12 | -0.25572 | 103.18365 | 35779 ft | 519 kts | 292° |
| 2026-05-01 09:12 | -0.22870 | 103.11457 | 35778 ft | 519 kts | 292° |
| 2026-05-01 09:13 | -0.20242 | 103.04737 | 35771 ft | 519 kts | 292° |
| 2026-05-01 09:13 | -0.17581 | 102.97935 | 35771 ft | 519 kts | 292° |
| 2026-05-01 09:14 | -0.15002 | 102.91341 | 35769 ft | 519 kts | 292° |
| 2026-05-01 09:14 | -0.12302 | 102.84437 | 35763 ft | 519 kts | 292° |
| 2026-05-01 09:15 | -0.09674 | 102.77718 | 35763 ft | 519 kts | 292° |
| 2026-05-01 09:15 | -0.07007 | 102.70901 | 35764 ft | 519 kts | 292° |
| 2026-05-01 09:16 | -0.04380 | 102.64183 | 35763 ft | 519 kts | 292° |
| 2026-05-01 09:17 | -0.00398 | 102.54002 | 35761 ft | 519 kts | 292° |
| 2026-05-01 09:17 | 0.03205 | 102.44792 | 35761 ft | 518 kts | 292° |
| 2026-05-01 09:18 | 0.07173 | 102.34645 | 35760 ft | 517 kts | 292° |
| 2026-05-01 09:19 | 0.11155 | 102.24465 | 35760 ft | 517 kts | 292° |
| 2026-05-01 09:20 | 0.15180 | 102.14175 | 35759 ft | 518 kts | 292° |
| 2026-05-01 09:21 | 0.20441 | 102.00722 | 35759 ft | 517 kts | 292° |
| 2026-05-01 09:21 | 0.24491 | 101.90368 | 35758 ft | 516 kts | 293° |
| 2026-05-01 09:22 | 0.29772 | 101.76865 | 35758 ft | 518 kts | 292° |
| 2026-05-01 09:23 | 0.33329 | 101.67769 | 35757 ft | 517 kts | 293° |
| 2026-05-01 09:24 | 0.37271 | 101.57687 | 35757 ft | 516 kts | 293° |
| 2026-05-01 09:25 | 0.42912 | 101.44406 | 35757 ft | 514 kts | 303° |
| 2026-05-01 09:25 | 0.47643 | 101.38786 | 35758 ft | 511 kts | 319° |
| 2026-05-01 09:26 | 0.50360 | 101.36431 | 35757 ft | 510 kts | 322° |
| 2026-05-01 09:26 | 0.58428 | 101.29523 | 35757 ft | 508 kts | 320° |
| 2026-05-01 09:27 | 0.66318 | 101.22345 | 35758 ft | 509 kts | 319° |
| 2026-05-01 09:28 | 0.71614 | 101.17486 | 35758 ft | 510 kts | 319° |
| 2026-05-01 09:28 | 0.76848 | 101.12680 | 35758 ft | 510 kts | 319° |
| 2026-05-01 09:29 | 0.84263 | 101.05870 | 35758 ft | 510 kts | 319° |
| 2026-05-01 09:30 | 0.92159 | 100.98618 | 35764 ft | 510 kts | 319° |
| 2026-05-01 09:30 | 1.00059 | 100.91361 | 35765 ft | 511 kts | 319° |
| 2026-05-01 09:31 | 1.05130 | 100.86703 | 35764 ft | 511 kts | 319° |
| 2026-05-01 09:32 | 1.13242 | 100.79251 | 35766 ft | 512 kts | 319° |
| 2026-05-01 09:32 | 1.20619 | 100.72473 | 35765 ft | 513 kts | 319° |
| 2026-05-01 09:33 | 1.26128 | 100.67411 | 35766 ft | 513 kts | 319° |
| 2026-05-01 09:34 | 1.34021 | 100.60159 | 35765 ft | 513 kts | 319° |
| 2026-05-01 09:34 | 1.41960 | 100.52863 | 35768 ft | 513 kts | 319° |
| 2026-05-01 09:35 | 1.49986 | 100.45487 | 35769 ft | 513 kts | 319° |
| 2026-05-01 09:36 | 1.55288 | 100.40613 | 35769 ft | 513 kts | 319° |
| 2026-05-01 09:36 | 1.59970 | 100.36309 | 35768 ft | 513 kts | 319° |
| 2026-05-01 09:37 | 1.65228 | 100.31476 | 35770 ft | 513 kts | 319° |
| 2026-05-01 09:37 | 1.70604 | 100.26533 | 35036 ft | 519 kts | 319° |
| 2026-05-01 09:37 | 1.73208 | 100.24140 | 34341 ft | 517 kts | 319° |
| 2026-05-01 09:38 | 1.78531 | 100.19246 | 32977 ft | 514 kts | 319° |
| 2026-05-01 09:38 | 1.81160 | 100.16827 | 32402 ft | 511 kts | 319° |
| 2026-05-01 09:38 | 1.83772 | 100.14425 | 31841 ft | 508 kts | 319° |
| 2026-05-01 09:39 | 1.88931 | 100.09679 | 30788 ft | 501 kts | 319° |
| 2026-05-01 09:39 | 1.91661 | 100.07169 | 30244 ft | 497 kts | 319° |
| 2026-05-01 09:39 | 1.94193 | 100.04841 | 29746 ft | 493 kts | 319° |
| 2026-05-01 09:40 | 1.96708 | 100.02543 | 29222 ft | 489 kts | 319° |
| 2026-05-01 09:40 | 2.01910 | 99.97958 | 28124 ft | 481 kts | 320° |
| 2026-05-01 09:40 | 2.04414 | 99.95747 | 27595 ft | 477 kts | 320° |
| 2026-05-01 09:41 | 2.06885 | 99.93557 | 27065 ft | 474 kts | 320° |
| 2026-05-01 09:41 | 2.11906 | 99.89098 | 25996 ft | 466 kts | 320° |
| 2026-05-01 09:41 | 2.13505 | 99.87676 | 25652 ft | 463 kts | 320° |
| 2026-05-01 09:42 | 2.15971 | 99.85485 | 25120 ft | 460 kts | 320° |
| 2026-05-01 09:42 | 2.18384 | 99.83340 | 24593 ft | 456 kts | 319° |
| 2026-05-01 09:42 | 2.23122 | 99.79128 | 23558 ft | 449 kts | 320° |
| 2026-05-01 09:43 | 2.27945 | 99.74839 | 22611 ft | 441 kts | 320° |
| 2026-05-01 09:43 | 2.30232 | 99.72810 | 22288 ft | 436 kts | 320° |
| 2026-05-01 09:43 | 2.32504 | 99.70792 | 21965 ft | 439 kts | 320° |
| 2026-05-01 09:44 | 2.37304 | 99.66528 | 21291 ft | 434 kts | 320° |
| 2026-05-01 09:44 | 2.39622 | 99.64467 | 20965 ft | 432 kts | 320° |
| 2026-05-01 09:44 | 2.41893 | 99.62448 | 20647 ft | 430 kts | 320° |
| 2026-05-01 09:45 | 2.44098 | 99.60488 | 20337 ft | 428 kts | 320° |
| 2026-05-01 09:45 | 2.47878 | 99.57127 | 19802 ft | 425 kts | 320° |
| 2026-05-01 09:45 | 2.50212 | 99.55052 | 19473 ft | 423 kts | 320° |
| 2026-05-01 09:46 | 2.52517 | 99.53002 | 19149 ft | 421 kts | 320° |
| 2026-05-01 09:46 | 2.54700 | 99.51063 | 18843 ft | 419 kts | 320° |
| 2026-05-01 09:46 | 2.56877 | 99.49128 | 18536 ft | 417 kts | 320° |
| 2026-05-01 09:46 | 2.59045 | 99.47201 | 18232 ft | 415 kts | 320° |
| 2026-05-01 09:47 | 2.61227 | 99.45260 | 17926 ft | 413 kts | 320° |
| 2026-05-01 09:47 | 2.63361 | 99.43363 | 17626 ft | 411 kts | 320° |
| 2026-05-01 09:47 | 2.65494 | 99.41466 | 17326 ft | 409 kts | 320° |
| 2026-05-01 09:47 | 2.67647 | 99.39551 | 17060 ft | 406 kts | 320° |
| 2026-05-01 09:48 | 2.69818 | 99.37620 | 16944 ft | 406 kts | 320° |
| 2026-05-01 09:48 | 2.71901 | 99.35767 | 16641 ft | 405 kts | 320° |
| 2026-05-01 09:48 | 2.73997 | 99.33903 | 16345 ft | 402 kts | 320° |
| 2026-05-01 09:48 | 2.76054 | 99.32075 | 16056 ft | 400 kts | 320° |
| 2026-05-01 09:49 | 2.78210 | 99.30156 | 15751 ft | 398 kts | 320° |
| 2026-05-01 09:49 | 2.80414 | 99.28196 | 15442 ft | 396 kts | 320° |
| 2026-05-01 09:49 | 2.82026 | 99.26761 | 15215 ft | 394 kts | 320° |
| 2026-05-01 09:49 | 2.84215 | 99.24814 | 14908 ft | 392 kts | 320° |
| 2026-05-01 09:50 | 2.86276 | 99.22979 | 14619 ft | 391 kts | 320° |
| 2026-05-01 09:50 | 2.88311 | 99.21168 | 14332 ft | 389 kts | 320° |
| 2026-05-01 09:50 | 2.90322 | 99.19377 | 14049 ft | 387 kts | 320° |
| 2026-05-01 09:50 | 2.92332 | 99.17588 | 13767 ft | 385 kts | 320° |
| 2026-05-01 09:51 | 2.94339 | 99.15802 | 13485 ft | 384 kts | 320° |
| 2026-05-01 09:51 | 2.96337 | 99.14025 | 13204 ft | 382 kts | 320° |
| 2026-05-01 09:51 | 2.98317 | 99.12254 | 12885 ft | 381 kts | 320° |
| 2026-05-01 09:51 | 3.00272 | 99.10405 | 12532 ft | 379 kts | 317° |
| 2026-05-01 09:52 | 3.02123 | 99.08557 | 12179 ft | 375 kts | 316° |
| 2026-05-01 09:52 | 3.04018 | 99.06618 | 11813 ft | 373 kts | 316° |
| 2026-05-01 09:52 | 3.05827 | 99.04778 | 11464 ft | 368 kts | 317° |
| 2026-05-01 09:52 | 3.07641 | 99.02951 | 11112 ft | 363 kts | 317° |
| 2026-05-01 09:53 | 3.09415 | 99.01176 | 10772 ft | 359 kts | 317° |
| 2026-05-01 09:53 | 3.11199 | 98.99396 | 10430 ft | 354 kts | 317° |
| 2026-05-01 09:53 | 3.12981 | 98.97620 | 10087 ft | 350 kts | 317° |
| 2026-05-01 09:53 | 3.14689 | 98.95919 | 9856 ft | 343 kts | 317° |
| 2026-05-01 09:54 | 3.16326 | 98.94288 | 9641 ft | 325 kts | 317° |
| 2026-05-01 09:54 | 3.17383 | 98.93235 | 9433 ft | 310 kts | 317° |
| 2026-05-01 09:54 | 3.18942 | 98.91682 | 9042 ft | 291 kts | 317° |
| 2026-05-01 09:54 | 3.20395 | 98.90235 | 8680 ft | 290 kts | 317° |
| 2026-05-01 09:55 | 3.21819 | 98.88817 | 8400 ft | 288 kts | 317° |
| 2026-05-01 09:55 | 3.23238 | 98.87403 | 8123 ft | 286 kts | 317° |
| 2026-05-01 09:55 | 3.24643 | 98.86004 | 7853 ft | 284 kts | 317° |
| 2026-05-01 09:55 | 3.26045 | 98.84607 | 7581 ft | 282 kts | 317° |
| 2026-05-01 09:56 | 3.27428 | 98.83230 | 7315 ft | 280 kts | 317° |
| 2026-05-01 09:56 | 3.28806 | 98.81858 | 7052 ft | 277 kts | 317° |
| 2026-05-01 09:56 | 3.30149 | 98.80520 | 6797 ft | 276 kts | 317° |
| 2026-05-01 09:56 | 3.31550 | 98.79124 | 6530 ft | 278 kts | 317° |
| 2026-05-01 09:57 | 3.32939 | 98.77785 | 6266 ft | 275 kts | 318° |
| 2026-05-01 09:57 | 3.34368 | 98.76439 | 5999 ft | 273 kts | 319° |
| 2026-05-01 09:57 | 3.35730 | 98.75151 | 5742 ft | 271 kts | 318° |
| 2026-05-01 09:57 | 3.37113 | 98.73836 | 5484 ft | 269 kts | 318° |
| 2026-05-01 09:58 | 3.38459 | 98.72552 | 5230 ft | 267 kts | 318° |
| 2026-05-01 09:58 | 3.39833 | 98.71241 | 4967 ft | 262 kts | 318° |
| 2026-05-01 09:58 | 3.41112 | 98.70035 | 4712 ft | 243 kts | 321° |
| 2026-05-01 09:58 | 3.42471 | 98.69150 | 4491 ft | 229 kts | 336° |
| 2026-05-01 09:59 | 3.44020 | 98.68749 | 4294 ft | 225 kts | 356° |
| 2026-05-01 09:59 | 3.45545 | 98.68911 | 4085 ft | 216 kts | 21° |
| 2026-05-01 09:59 | 3.46821 | 98.69775 | 3667 ft | 212 kts | 44° |
| 2026-05-01 09:59 | 3.47802 | 98.70813 | 3384 ft | 211 kts | 47° |
| 2026-05-01 10:00 | 3.48733 | 98.71872 | 3328 ft | 197 kts | 50° |
| 2026-05-01 10:00 | 3.49613 | 98.72939 | 3148 ft | 198 kts | 52° |
| 2026-05-01 10:00 | 3.50516 | 98.74010 | 2971 ft | 202 kts | 48° |
| 2026-05-01 10:00 | 3.51498 | 98.75010 | 2778 ft | 201 kts | 45° |
| 2026-05-01 10:01 | 3.52503 | 98.75977 | 2572 ft | 199 kts | 44° |
| 2026-05-01 10:01 | 3.53483 | 98.76914 | 2367 ft | 188 kts | 44° |
| 2026-05-01 10:01 | 3.54410 | 98.77803 | 2181 ft | 171 kts | 44° |
| 2026-05-01 10:01 | 3.55221 | 98.78581 | 2023 ft | 152 kts | 43° |
| 2026-05-01 10:02 | 3.55951 | 98.79289 | 1857 ft | 147 kts | 45° |
| 2026-05-01 10:02 | 3.56733 | 98.80063 | 1725 ft | 159 kts | 45° |
| 2026-05-01 10:02 | 3.57520 | 98.80843 | 1528 ft | 156 kts | 45° |
| 2026-05-01 10:02 | 3.58036 | 98.81354 | 1328 ft | 156 kts | 45° |
| 2026-05-01 10:03 | 3.58863 | 98.82172 | 1074 ft | 153 kts | 45° |
| 2026-05-01 10:03 | 3.59702 | 98.83002 | 864 ft | 156 kts | 44° |
| 2026-05-01 10:03 | 3.60537 | 98.83827 | 649 ft | 154 kts | 43° |
| 2026-05-01 10:03 | 3.61351 | 98.84634 | 425 ft | 147 kts | 43° |
| 2026-05-01 10:04 | 3.61830 | 98.85106 | 250 ft | 139 kts | 42° |
| 2026-05-01 10:04 | 3.62518 | 98.85788 | 90 ft | 142 kts | 43° |
| 2026-05-01 10:04 | 3.63148 | 98.86411 | 39 ft | 107 kts | 44° |
| 2026-05-01 10:04 | 3.63556 | 98.86813 | 39 ft | 59 kts | 44° |
| 2026-05-01 10:05 | 3.63796 | 98.87050 | 39 ft | 42 kts | 44° |
| 2026-05-01 10:05 | 3.63985 | 98.87238 | 39 ft | 28 kts | 44° |
| 2026-05-01 10:05 | 3.64080 | 98.87397 | 39 ft | 21 kts | 72° |
| 2026-05-01 10:05 | 3.64102 | 98.87469 | 39 ft | 12 kts | 73° |
| 2026-05-01 10:06 | 3.64129 | 98.87564 | 39 ft | 14 kts | 75° |
| 2026-05-01 10:06 | 3.64171 | 98.87671 | 39 ft | 19 kts | 57° |
| 2026-05-01 10:06 | 3.64257 | 98.87769 | 39 ft | 7 kts | 45° |
| 2026-05-01 10:06 | 3.64258 | 98.87771 | 39 ft | 0 kts | 45° |
| 2026-05-01 10:07 | 3.64266 | 98.87779 | 39 ft | 4 kts | 45° |
| 2026-05-01 10:07 | 3.64298 | 98.87811 | 39 ft | 9 kts | 45° |
| 2026-05-01 10:07 | 3.64355 | 98.87867 | 39 ft | 13 kts | 45° |
| 2026-05-01 10:08 | 3.64396 | 98.87908 | 39 ft | 8 kts | 45° |
| 2026-05-01 10:08 | 3.64430 | 98.87955 | 39 ft | 9 kts | 82° |
| 2026-05-01 10:08 | 3.64393 | 98.88015 | 39 ft | 13 kts | 134° |
| 2026-05-01 10:09 | 3.64320 | 98.88089 | 39 ft | 17 kts | 135° |
| 2026-05-01 10:09 | 3.64231 | 98.88177 | 39 ft | 12 kts | 135° |
| 2026-05-01 10:09 | 3.64167 | 98.88191 | 39 ft | 14 kts | 210° |
| 2026-05-01 10:09 | 3.64074 | 98.88102 | 39 ft | 19 kts | 225° |
| 2026-05-01 10:10 | 3.63988 | 98.88017 | 39 ft | 11 kts | 225° |
| 2026-05-01 10:10 | 3.63937 | 98.87971 | 39 ft | 9 kts | 209° |
| 2026-05-01 10:10 | 3.63852 | 98.87940 | 39 ft | 6 kts | 225° |
| 2026-05-01 10:11 | 3.63828 | 98.87916 | 39 ft | 0 kts | 225° |